Time;durP1;ratioP1;P1;durP2;ratioP2;P2;SDS_P1;SDS_P2;PMS_P1;PMS_P2;Temp;Humidity;BMP_temperature;BMP_pressure;BME280_temperature;BME280_humidity;BME280_pressure;Samples;Min_cycle;Max_cycle;Signal;HPM_P1;HPM_P2
2022/07/25 00:00:54;;;;;;;8.57;4.70;;;20.80;95.30;;;21.70;88.82;97886.00;5057822;28;20441;-80
2022/07/25 00:03:25;;;;;;;5.33;4.03;;;20.70;95.40;;;21.64;89.50;97879.06;5058290;28;20459;-80
2022/07/25 00:05:56;;;;;;;8.00;4.80;;;20.50;95.60;;;21.61;89.82;97876.94;5056660;28;20506;-80
2022/07/25 00:08:26;;;;;;;5.30;4.10;;;20.60;95.50;;;21.59;89.91;97872.66;5060135;28;20491;-80
2022/07/25 00:10:56;;;;;;;6.10;4.60;;;20.60;95.30;;;21.53;90.47;97867.59;5057445;28;20479;-80
2022/07/25 00:13:28;;;;;;;6.93;4.77;;;20.60;95.50;;;21.49;90.54;97864.66;5055200;28;20793;-80
2022/07/25 00:15:59;;;;;;;5.20;4.00;;;20.50;95.50;;;21.48;90.23;97865.72;5056764;28;20484;-80
2022/07/25 00:18:29;;;;;;;5.53;4.23;;;20.50;95.50;;;21.48;90.42;97863.06;5057673;28;20472;-80
2022/07/25 00:20:59;;;;;;;5.33;4.40;;;20.60;95.50;;;21.44;90.89;97858.50;5059451;28;20453;-80
2022/07/25 00:23:28;;;;;;;6.77;4.13;;;20.50;95.70;;;21.37;91.22;97856.09;5056829;28;20826;-81
2022/07/25 00:25:58;;;;;;;5.90;4.20;;;20.40;95.90;;;21.31;91.43;97859.78;5055913;28;20460;-80
2022/07/25 00:28:29;;;;;;;5.77;4.20;;;20.40;95.90;;;21.23;92.08;97856.84;5056855;28;20461;-80
2022/07/25 00:30:58;;;;;;;6.53;4.40;;;20.30;96.00;;;21.21;92.10;97853.66;5057859;28;20521;-80
2022/07/25 00:33:27;;;;;;;5.57;4.00;;;20.30;95.90;;;21.16;92.79;97854.41;5058364;28;20484;-80
2022/07/25 00:35:56;;;;;;;5.67;4.50;;;20.20;96.10;;;21.11;92.87;97846.41;5057860;28;20546;-80
2022/07/25 00:38:25;;;;;;;5.57;4.00;;;20.00;96.20;;;21.11;93.08;97849.06;5060001;28;24897;-80
2022/07/25 00:40:55;;;;;;;5.90;4.80;;;20.10;96.00;;;21.07;93.41;97850.59;5061677;28;20444;-80
2022/07/25 00:43:24;;;;;;;7.10;4.80;;;20.10;96.10;;;21.03;93.56;97841.56;5061430;28;20543;-80
2022/07/25 00:45:57;;;;;;;7.43;4.60;;;20.00;96.00;;;20.95;94.65;97842.84;5060951;28;20448;-80
2022/07/25 00:48:29;;;;;;;5.03;3.70;;;19.90;96.50;;;20.90;94.95;97848.13;5062132;28;20480;-80
2022/07/25 00:50:59;;;;;;;4.80;4.00;;;19.80;96.60;;;20.89;94.82;97848.41;5060903;28;20507;-80
2022/07/25 00:53:29;;;;;;;17.53;4.50;;;19.90;96.50;;;20.89;94.70;97845.75;5060040;28;20609;-80
2022/07/25 00:55:58;;;;;;;6.03;4.60;;;19.80;96.60;;;20.89;94.73;97841.22;5061991;28;20562;-80
2022/07/25 00:58:28;;;;;;;5.00;4.30;;;19.70;96.60;;;20.84;94.90;97848.38;5062296;28;20479;-80
2022/07/25 01:01:00;;;;;;;6.47;4.87;;;19.80;96.60;;;20.82;95.22;97839.84;5058696;28;20464;-80
2022/07/25 01:03:30;;;;;;;5.20;4.27;;;19.80;96.60;;;20.74;95.55;97837.66;5062989;28;20460;-80
2022/07/25 01:05:59;;;;;;;5.90;4.37;;;19.70;96.50;;;20.72;95.91;97834.47;5061381;28;20872;-80
2022/07/25 01:08:31;;;;;;;6.00;4.43;;;19.70;96.80;;;20.73;95.44;97825.44;5062757;28;20504;-80
2022/07/25 01:11:01;;;;;;;5.30;4.00;;;19.70;96.60;;;20.77;95.82;97826.53;5059760;28;20476;-80
2022/07/25 01:13:34;;;;;;;5.77;4.13;;;19.70;96.70;;;20.73;95.24;97822.78;5059675;28;21171;-80
2022/07/25 01:16:06;;;;;;;7.50;4.20;;;19.70;96.60;;;20.62;95.66;97819.25;5059467;28;20473;-80
2022/07/25 01:18:37;;;;;;;5.13;4.40;;;19.60;96.50;;;20.55;96.15;97819.47;5061859;28;20490;-80
2022/07/25 01:21:08;;;;;;;6.40;4.40;;;19.50;96.70;;;20.52;96.32;97824.50;5059901;28;20955;-80
2022/07/25 01:23:39;;;;;;;7.03;4.50;;;19.60;96.60;;;20.41;97.43;97823.63;5060572;28;20525;-80
2022/07/25 01:26:09;;;;;;;5.70;4.13;;;19.40;96.80;;;20.37;98.02;97824.41;5061574;28;20484;-80
2022/07/25 01:28:40;;;;;;;5.80;4.50;;;19.40;96.90;;;20.41;98.82;97823.63;5061397;28;20476;-80
2022/07/25 01:31:10;;;;;;;8.23;4.40;;;19.30;97.20;;;20.41;97.47;97810.34;5061085;28;20559;-80
2022/07/25 01:33:40;;;;;;;8.80;4.47;;;19.40;96.70;;;20.35;98.21;97813.22;5061225;28;20467;-80
2022/07/25 01:36:12;;;;;;;5.03;4.03;;;19.40;96.90;;;20.30;98.68;97807.91;5060902;28;20485;-80
2022/07/25 01:38:41;;;;;;;8.90;4.40;;;19.30;97.20;;;20.29;98.97;97806.28;5060731;28;20980;-80
2022/07/25 01:41:10;;;;;;;5.67;4.13;;;19.20;97.30;;;20.27;98.64;97811.84;5060066;28;20463;-80
2022/07/25 01:43:51;;;;;;;6.83;4.43;;;19.30;97.00;;;20.26;98.63;97810.22;5060580;28;20468;-80
2022/07/25 01:46:21;;;;;;;10.23;4.67;;;19.20;97.20;;;20.25;98.76;97798.00;5059164;28;20469;-80
2022/07/25 01:48:51;;;;;;;4.93;4.27;;;19.20;97.40;;;20.24;98.90;97801.69;5060314;28;20440;-80
2022/07/25 01:51:22;;;;;;;6.43;3.80;;;19.20;97.40;;;20.21;98.92;97798.75;5059166;28;20463;-80
2022/07/25 01:53:54;;;;;;;5.60;4.63;;;19.20;97.30;;;20.12;99.47;97809.06;5059606;28;20467;-80
2022/07/25 01:56:25;;;;;;;8.07;4.63;;;19.20;97.10;;;20.02;100.00;97809.78;5060470;28;20912;-80
2022/07/25 01:58:57;;;;;;;10.13;4.77;;;19.10;97.20;;;19.99;100.00;97801.53;5060310;28;20440;-80
2022/07/25 02:01:28;;;;;;;7.10;4.33;;;19.00;97.60;;;19.98;100.00;97800.72;5059611;28;21179;-80
2022/07/25 02:03:59;;;;;;;5.27;3.80;;;18.90;97.50;;;19.98;100.00;97794.59;5056507;28;20457;-80
2022/07/25 02:06:30;;;;;;;5.50;4.17;;;19.00;97.40;;;19.95;100.00;97793.28;5060235;28;20461;-80
2022/07/25 02:09:01;;;;;;;7.17;4.97;;;18.90;97.40;;;19.92;100.00;97792.97;5060216;28;20492;-80
2022/07/25 02:11:30;;;;;;;7.47;4.03;;;18.90;97.50;;;19.86;100.00;97799.28;5058136;28;20496;-80
2022/07/25 02:14:01;;;;;;;5.13;4.23;;;18.80;97.60;;;19.82;100.00;97792.88;5058832;28;20465;-80
2022/07/25 02:16:32;;;;;;;17.67;4.93;;;18.80;97.70;;;19.78;100.00;97792.59;5059376;28;20492;-80
2022/07/25 02:19:02;;;;;;;7.03;4.53;;;18.80;97.80;;;19.82;100.00;97792.88;5061129;28;21387;-80
2022/07/25 02:21:34;;;;;;;5.27;4.27;;;18.70;97.90;;;19.83;100.00;97783.84;5057626;28;20551;-80
2022/07/25 02:24:06;;;;;;;7.33;4.13;;;18.70;97.80;;;19.71;100.00;97785.88;5061962;28;20567;-80
2022/07/25 02:26:37;;;;;;;5.63;4.83;;;18.70;97.70;;;19.71;100.00;97776.06;5059218;28;20959;-80
2022/07/25 02:29:07;;;;;;;5.53;4.50;;;18.70;98.10;;;19.72;100.00;97782.16;5059069;28;20460;-80
2022/07/25 02:31:37;;;;;;;5.00;4.50;;;18.70;97.70;;;19.70;100.00;97778.97;5058919;28;20526;-80
2022/07/25 02:34:07;;;;;;;8.53;4.47;;;18.60;97.80;;;19.63;100.00;97775.72;5058296;28;20548;-80
2022/07/25 02:36:38;;;;;;;6.60;4.30;;;18.60;98.00;;;19.56;100.00;97768.75;5059064;28;20545;-80
2022/07/25 02:39:08;;;;;;;5.60;4.03;;;18.60;98.00;;;19.59;100.00;97772.75;5059498;28;20808;-80
2022/07/25 02:41:37;;;;;;;5.73;3.93;;;18.50;98.10;;;19.57;100.00;97773.03;5059033;28;20459;-80
2022/07/25 02:44:08;;;;;;;6.33;4.50;;;18.50;98.00;;;19.57;100.00;97765.06;5058315;28;20457;-79
2022/07/25 02:46:37;;;;;;;5.50;4.47;;;18.50;98.10;;;19.56;100.00;97768.75;5059236;28;20973;-80
2022/07/25 02:49:07;;;;;;;7.20;5.10;;;18.50;98.10;;;19.57;100.00;97759.75;5057648;28;20497;-79
2022/07/25 02:51:39;;;;;;;6.53;3.93;;;18.50;98.20;;;19.56;100.00;97765.31;5060127;28;20453;-79
2022/07/25 02:54:08;;;;;;;4.87;4.37;;;18.50;98.00;;;19.54;100.00;97760.25;5058197;28;20510;-79
2022/07/25 02:56:40;;;;;;;10.57;4.70;;;18.50;98.30;;;19.55;100.00;97756.53;5059085;28;21062;-79
2022/07/25 02:59:09;;;;;;;5.93;4.27;;;18.50;98.20;;;19.56;100.00;97758.16;5059266;28;20522;-79
2022/07/25 03:01:39;;;;;;;6.73;5.07;;;18.50;98.30;;;19.56;100.00;97754.69;5059277;28;20452;-79
2022/07/25 03:04:09;;;;;;;6.10;4.80;;;18.50;98.30;;;19.55;100.00;97753.09;5059208;28;20514;-80
2022/07/25 03:06:41;;;;;;;5.23;4.17;;;18.40;98.20;;;19.53;100.00;97747.25;5055832;28;20476;-79
2022/07/25 03:09:11;;;;;;;7.43;4.70;;;18.40;98.20;;;19.47;100.00;97754.34;5056220;28;20549;-80
2022/07/25 03:11:41;;;;;;;6.70;4.70;;;18.50;98.00;;;19.45;100.00;97750.34;5055716;28;20526;-80
2022/07/25 03:14:12;;;;;;;6.50;4.70;;;18.40;98.20;;;19.42;100.00;97746.34;5055037;28;20491;-80
2022/07/25 03:16:43;;;;;;;7.00;5.00;;;18.30;98.30;;;19.41;100.00;97742.09;5053796;28;20503;-79
2022/07/25 03:19:13;;;;;;;6.10;4.90;;;18.30;98.40;;;19.38;100.00;97737.25;5056856;28;20478;-80
2022/07/25 03:21:45;;;;;;;6.20;4.37;;;18.40;98.10;;;19.35;100.00;97735.09;5057315;28;20496;-80
2022/07/25 03:24:14;;;;;;;6.40;4.70;;;18.40;98.10;;;19.30;100.00;97731.63;5057026;28;20491;-80
2022/07/25 03:26:44;;;;;;;5.40;3.93;;;18.30;98.10;;;19.23;100.00;97737.09;5056503;28;20469;-80
2022/07/25 03:29:15;;;;;;;5.83;4.70;;;18.30;98.30;;;19.20;100.00;97736.78;5059131;28;21021;-80
2022/07/25 03:31:44;;;;;;;7.63;4.77;;;18.30;98.10;;;19.17;100.00;97732.00;5056719;28;20459;-80
2022/07/25 03:34:15;;;;;;;5.80;4.77;;;18.30;98.30;;;19.17;100.00;97732.78;5056884;28;21103;-79
2022/07/25 03:36:48;;;;;;;6.23;4.60;;;18.20;98.50;;;19.18;100.00;97729.09;5056858;28;20491;-79
2022/07/25 03:39:19;;;;;;;7.83;4.27;;;18.20;98.60;;;19.18;100.00;97728.28;5057812;28;20452;-80
2022/07/25 03:41:48;;;;;;;5.17;4.20;;;18.10;98.70;;;19.14;100.00;97732.50;5056912;28;20461;-80
2022/07/25 03:44:18;;;;;;;11.67;5.27;;;18.10;98.50;;;19.10;100.00;97727.69;5057500;28;20464;-80
2022/07/25 03:46:48;;;;;;;8.93;4.70;;;18.10;98.60;;;19.10;100.00;97726.88;5057318;28;20437;-79
2022/07/25 03:49:17;;;;;;;5.70;4.50;;;18.00;98.70;;;19.07;100.00;97712.28;5058591;28;20894;-81
2022/07/25 03:51:48;;;;;;;5.80;3.90;;;18.00;98.70;;;19.06;100.00;97720.47;5053631;28;20468;-79
2022/07/25 03:54:18;;;;;;;6.53;4.60;;;18.10;98.40;;;19.02;100.00;97722.03;5055365;28;20511;-79
2022/07/25 03:56:49;;;;;;;6.53;5.00;;;18.00;98.80;;;19.01;100.00;97723.91;5054766;28;20553;-80
2022/07/25 03:59:21;;;;;;;11.33;6.50;;;18.00;98.70;;;18.96;100.00;97713.22;5057188;28;20464;-80
2022/07/25 04:01:51;;;;;;;5.60;4.70;;;18.00;98.70;;;18.97;100.00;97716.69;5056116;28;20457;-80
2022/07/25 04:04:21;;;;;;;5.87;4.27;;;18.00;98.80;;;18.98;100.00;97719.09;5057706;28;21010;-79
2022/07/25 04:06:52;;;;;;;6.90;5.17;;;18.00;98.80;;;18.97;100.00;97711.38;5055946;28;20472;-80
2022/07/25 04:09:31;;;;;;;6.23;4.87;;;18.00;99.00;;;18.96;100.00;97718.53;5057927;28;20460;-80
2022/07/25 04:12:03;;;;;;;7.67;5.30;;;18.00;98.90;;;18.98;100.00;97713.00;5057878;28;20463;-79
2022/07/25 04:14:34;;;;;;;7.60;5.30;;;17.90;99.00;;;18.97;100.00;97714.03;5059369;28;20456;-79
2022/07/25 04:17:05;;;;;;;5.83;4.77;;;17.90;98.90;;;18.95;100.00;97713.50;5060738;28;20500;-80
2022/07/25 04:19:35;;;;;;;7.50;4.90;;;17.90;99.00;;;18.92;100.00;97706.00;5060782;28;20847;-79
2022/07/25 04:22:06;;;;;;;7.20;4.90;;;17.80;99.00;;;18.93;100.00;97704.97;5059798;28;20468;-79
2022/07/25 04:24:36;;;;;;;6.63;4.53;;;17.80;99.10;;;18.94;100.00;97701.28;5060856;28;20525;-79
2022/07/25 04:27:07;;;;;;;9.23;5.20;;;17.90;99.10;;;18.94;100.00;97702.09;5061199;28;20941;-79
2022/07/25 04:29:36;;;;;;;7.07;4.90;;;17.90;99.20;;;18.91;100.00;97691.97;5059947;28;20500;-79
2022/07/25 04:32:08;;;;;;;6.83;4.77;;;17.80;99.10;;;18.91;100.00;97691.19;5056975;28;20452;-79
2022/07/25 04:34:39;;;;;;;6.50;4.97;;;17.80;99.20;;;18.93;100.00;97689.06;5056948;28;20455;-80
2022/07/25 04:37:09;;;;;;;5.40;4.43;;;17.90;99.20;;;18.89;100.00;97688.75;5060012;28;20500;-79
2022/07/25 04:39:39;;;;;;;8.03;4.93;;;17.90;99.10;;;18.89;100.00;97683.47;5058012;28;20460;-79
2022/07/25 04:42:09;;;;;;;5.90;4.60;;;17.90;99.30;;;18.88;100.00;97684.50;5059268;28;20502;-79
2022/07/25 04:44:38;;;;;;;6.50;4.83;;;17.80;99.30;;;18.88;100.00;97687.16;5059287;28;20501;-79
2022/07/25 04:47:09;;;;;;;9.47;6.00;;;17.80;99.50;;;18.90;100.00;97684.25;5059181;28;21026;-79
2022/07/25 04:49:40;;;;;;;6.30;5.00;;;17.80;99.50;;;18.90;100.00;97671.03;5057854;28;20448;-79
2022/07/25 04:52:10;;;;;;;11.53;6.00;;;17.80;99.40;;;18.89;100.00;97675.50;5054070;28;20557;-79
2022/07/25 04:54:40;;;;;;;7.40;5.80;;;17.80;99.40;;;18.94;100.00;97685.38;5061172;28;20480;-79
2022/07/25 04:57:11;;;;;;;7.43;5.67;;;17.80;99.40;;;18.96;100.00;97683.25;5060837;28;20484;-79
2022/07/25 04:59:43;;;;;;;8.47;5.27;;;17.90;99.40;;;18.98;100.00;97675.88;5057776;28;20463;-79
2022/07/25 05:02:14;;;;;;;8.23;5.33;;;17.90;99.30;;;18.99;100.00;97674.81;5059870;28;20466;-82
2022/07/25 05:04:43;;;;;;;6.73;5.10;;;17.90;99.30;;;18.99;100.00;97670.31;5057948;28;21056;-80
2022/07/25 05:07:15;;;;;;;9.23;5.00;;;17.90;99.30;;;19.02;100.00;97659.22;5058398;28;20836;-79
2022/07/25 05:09:45;;;;;;;6.50;5.13;;;17.90;99.50;;;19.05;100.00;97664.00;5058158;28;20465;-79
2022/07/25 05:12:19;;;;;;;6.70;5.23;;;17.90;99.40;;;19.07;100.00;97663.78;5060998;28;20471;-79
2022/07/25 05:14:48;;;;;;;6.50;4.83;;;17.90;99.30;;;19.11;100.00;97656.91;5060589;28;20458;-82
2022/07/25 05:17:18;;;;;;;7.87;5.20;;;18.00;99.10;;;19.12;100.00;97653.22;5061446;28;21592;-79
2022/07/25 05:19:50;;;;;;;10.43;5.77;;;18.10;99.00;;;19.14;100.00;97661.72;5062054;28;20545;-79
2022/07/25 05:22:20;;;;;;;8.03;4.60;;;18.10;99.20;;;19.17;100.00;97663.88;5058786;28;20484;-79
2022/07/25 05:24:57;;;;;;;9.57;5.60;;;18.10;99.10;;;19.22;100.00;97655.97;5058571;28;20463;-79
2022/07/25 05:27:28;;;;;;;9.07;5.70;;;18.20;99.10;;;19.27;100.00;97661.31;5059681;28;20461;-84
2022/07/25 05:29:58;;;;;;;7.70;5.23;;;18.20;99.10;;;19.30;100.00;97663.44;5058459;28;20465;-79
2022/07/25 05:32:29;;;;;;;9.67;5.80;;;18.20;99.20;;;19.35;100.00;97666.16;5057672;28;20487;-79
2022/07/25 05:35:00;;;;;;;9.97;5.93;;;18.30;99.10;;;19.38;100.00;97659.53;5060439;28;20464;-79
2022/07/25 05:37:32;;;;;;;8.20;5.50;;;18.30;99.00;;;19.43;100.00;97660.44;5061367;28;20480;-79
2022/07/25 05:40:03;;;;;;;62.38;9.35;;;18.40;99.00;;;19.48;100.00;97649.03;5059751;28;20497;-79
2022/07/25 05:42:33;;;;;;;7.27;5.50;;;18.40;98.90;;;19.55;100.00;97655.75;5062442;28;20209;-79
2022/07/25 05:45:04;;;;;;;9.80;5.10;;;18.50;98.80;;;19.59;100.00;97656.84;5061283;28;21117;-79
2022/07/25 05:47:35;;;;;;;6.40;5.00;;;18.60;98.60;;;19.64;100.00;97657.94;5063137;28;20480;-79
2022/07/25 05:50:09;;;;;;;6.50;4.50;;;18.60;98.60;;;19.67;100.00;97654.75;5062481;28;20862;-79
2022/07/25 05:52:40;;;;;;;7.80;5.00;;;18.60;98.70;;;19.71;100.00;97653.22;5062140;28;20518;-79
2022/07/25 05:55:12;;;;;;;15.73;5.57;;;18.60;99.30;;;19.74;100.00;97658.00;5060327;28;20518;-79
2022/07/25 05:57:42;;;;;;;9.87;5.20;;;18.70;98.80;;;19.78;100.00;97653.78;5062639;28;20485;-79
2022/07/25 06:00:12;;;;;;;7.80;4.97;;;18.70;98.90;;;19.82;100.00;97652.22;5060863;28;20550;-79
2022/07/25 06:02:41;;;;;;;9.53;6.10;;;18.80;98.70;;;19.87;100.00;97652.25;5060214;28;20453;-79
2022/07/25 06:05:10;;;;;;;9.90;5.50;;;18.80;98.50;;;19.92;100.00;97647.75;5059863;28;20453;-79
2022/07/25 06:07:41;;;;;;;7.57;5.80;;;18.90;98.50;;;19.96;100.00;97646.19;5061944;28;20472;-79
2022/07/25 06:10:12;;;;;;;8.93;5.00;;;18.90;98.70;;;20.01;100.00;97645.44;5059568;28;20499;-78
2022/07/25 06:12:43;;;;;;;66.17;8.07;;;18.90;98.90;;;20.05;100.00;97643.88;5060517;28;20550;-79
2022/07/25 06:15:13;;;;;;;10.73;6.23;;;19.00;98.80;;;20.10;100.00;97635.91;5060265;28;20532;-79
2022/07/25 06:17:50;;;;;;;7.37;5.40;;;19.00;98.60;;;20.15;100.00;97640.47;5062445;28;20479;-79
2022/07/25 06:20:20;;;;;;;7.50;5.20;;;19.10;98.60;;;20.19;100.00;97645.00;5059361;28;20492;-79
2022/07/25 06:22:50;;;;;;;9.43;5.47;;;19.20;98.50;;;20.25;100.00;97638.66;5060321;28;20477;-78
2022/07/25 06:25:19;;;;;;;8.80;5.50;;;19.20;98.50;;;20.31;100.00;97637.66;5061665;28;20469;-79
2022/07/25 06:27:50;;;;;;;6.10;5.13;;;19.30;98.50;;;20.35;100.00;97633.41;5060443;28;20489;-79
2022/07/25 06:30:20;;;;;;;6.53;5.37;;;19.40;98.50;;;20.41;100.00;97635.03;5060304;28;20492;-79
2022/07/25 06:32:49;;;;;;;6.03;5.20;;;19.40;98.60;;;20.46;100.00;97631.59;5059281;28;20863;-79
2022/07/25 06:35:20;;;;;;;14.13;5.40;;;19.50;98.50;;;20.50;100.00;97620.19;5058763;28;20464;-79
2022/07/25 06:37:51;;;;;;;6.10;4.67;;;19.50;98.40;;;20.56;100.00;97621.81;5062954;28;20522;-79
2022/07/25 06:40:20;;;;;;;7.30;5.30;;;19.60;98.50;;;20.62;100.00;97616.53;5061119;28;20460;-79
2022/07/25 06:42:51;;;;;;;6.93;4.17;;;19.60;98.50;;;20.69;100.00;97612.53;5058485;28;20525;-80
2022/07/25 06:45:22;;;;;;;10.37;5.23;;;19.70;98.50;;;20.73;100.00;97610.16;5059772;28;20467;-79
2022/07/25 06:47:52;;;;;;;6.80;4.90;;;19.80;98.50;;;20.78;100.00;97616.28;5061764;28;20464;-79
2022/07/25 06:50:22;;;;;;;10.47;6.03;;;19.90;98.50;;;20.83;100.00;97607.50;5059051;28;20464;-79
2022/07/25 06:52:54;;;;;;;6.67;4.90;;;19.90;98.40;;;20.89;100.00;97614.44;5060008;28;20468;-78
2022/07/25 06:55:24;;;;;;;6.77;5.03;;;20.00;98.80;;;20.94;100.00;97614.44;5060641;28;20556;-79
2022/07/25 06:57:54;;;;;;;8.47;5.33;;;20.00;98.70;;;20.99;100.00;97615.28;5061108;28;20947;-79
2022/07/25 07:00:23;;;;;;;7.30;5.00;;;20.10;98.70;;;21.06;100.00;97607.03;5060519;28;20510;-79
2022/07/25 07:02:55;;;;;;;10.13;6.00;;;20.10;98.60;;;21.12;100.00;97600.69;5060432;28;20955;-79
2022/07/25 07:05:29;;;;;;;7.33;4.90;;;20.20;98.50;;;21.21;100.00;97596.41;5059779;28;20502;-79
2022/07/25 07:08:00;;;;;;;8.20;5.37;;;20.30;98.70;;;21.29;100.00;97597.75;5061177;28;20494;-79
2022/07/25 07:10:30;;;;;;;7.87;5.47;;;20.40;98.70;;;21.36;100.00;97591.09;5060415;28;21041;-79
2022/07/25 07:13:07;;;;;;;6.10;4.73;;;20.50;98.90;;;21.45;100.00;97580.72;5060598;28;20528;-80
2022/07/25 07:15:38;;;;;;;11.20;4.50;;;20.60;98.90;;;21.53;100.00;97585.50;5059144;28;20453;-79
2022/07/25 07:18:08;;;;;;;9.43;5.80;;;20.70;98.70;;;21.61;100.00;97589.47;5059740;28;20560;-79
2022/07/25 07:20:39;;;;;;;9.40;5.73;;;20.80;98.90;;;21.67;100.00;97585.72;5059942;28;20725;-79
2022/07/25 07:23:10;;;;;;;6.73;5.70;;;20.90;98.80;;;21.73;100.00;97585.44;5059945;28;20456;-79
2022/07/25 07:25:45;;;;;;;7.77;6.13;;;21.00;98.60;;;21.84;100.00;97591.56;5060373;28;20505;-79
2022/07/25 07:28:16;;;;;;;5.97;5.07;;;21.10;98.40;;;21.92;100.00;97588.38;5059932;28;21055;-79
2022/07/25 07:30:46;;;;;;;7.67;5.63;;;21.20;98.30;;;22.02;100.00;97583.81;5062289;28;20950;-79
2022/07/25 07:33:37;;;;;;;7.33;5.00;;;21.40;98.20;;;22.21;99.73;97589.34;5059965;28;20535;-79
2022/07/25 07:36:08;;;;;;;8.20;5.87;;;21.50;98.00;;;22.37;98.78;97585.53;5058117;28;20452;-80
2022/07/25 07:38:40;;;;;;;6.80;5.33;;;21.70;97.80;;;22.52;97.73;97580.16;5061291;28;20481;-79
2022/07/25 07:41:10;;;;;;;9.70;6.10;;;21.90;97.70;;;22.67;96.95;97578.47;5061823;28;20455;-79
2022/07/25 07:43:39;;;;;;;10.73;5.70;;;21.90;97.50;;;22.78;95.59;97569.34;5060841;28;20464;-79
2022/07/25 07:46:08;;;;;;;7.73;5.80;;;22.10;97.50;;;22.90;95.69;97569.81;5059832;28;20536;-79
2022/07/25 07:48:39;;;;;;;9.70;5.80;;;22.20;97.30;;;23.01;94.50;97571.34;5065344;28;20969;-79
2022/07/25 07:51:08;;;;;;;7.73;5.30;;;22.30;97.30;;;23.20;92.67;97560.75;5063976;28;21709;-79
2022/07/25 07:56:27;;;;;;;13.43;5.57;;;22.70;96.80;;;23.47;91.07;97551.19;5064982;28;20505;-79
2022/07/25 07:58:57;;;;;;;13.53;6.10;;;22.80;96.70;;;23.57;90.47;97555.63;5062831;28;20493;-79
2022/07/25 08:01:27;;;;;;;7.80;5.10;;;23.00;96.40;;;23.74;89.36;97549.88;5062854;28;20544;-79
2022/07/25 08:03:57;;;;;;;9.50;6.17;;;23.10;96.40;;;23.89;88.47;97549.69;5062888;28;20507;-79
2022/07/25 08:06:29;;;;;;;7.70;5.20;;;23.30;96.20;;;24.14;85.77;97543.28;5065692;28;20464;-79
2022/07/25 08:09:00;;;;;;;8.17;6.00;;;23.50;95.70;;;24.28;83.95;97539.63;5064631;28;20886;-79
2022/07/25 08:11:29;;;;;;;7.80;5.67;;;23.70;95.40;;;24.41;83.23;97544.25;5064214;28;20452;-79
2022/07/25 08:13:58;;;;;;;7.40;5.50;;;23.80;95.10;;;24.54;82.50;97540.06;5065030;28;20488;-79
2022/07/25 08:16:29;;;;;;;8.07;5.93;;;24.00;95.10;;;24.75;80.46;97540.59;5062433;28;21028;-79
2022/07/25 08:18:59;;;;;;;8.77;5.60;;;24.20;94.50;;;24.98;78.42;97537.03;5063742;28;20482;-79
2022/07/25 08:21:28;;;;;;;6.63;5.33;;;24.40;94.20;;;25.13;77.33;97544.81;5063079;28;20538;-79
2022/07/25 08:24:00;;;;;;;10.50;5.40;;;24.50;94.00;;;25.32;76.84;97547.44;5062119;28;20473;-79
2022/07/25 08:26:32;;;;;;;6.63;5.20;;;24.70;93.80;;;25.46;75.63;97530.31;5062439;28;20456;-79
2022/07/25 08:29:02;;;;;;;7.40;5.63;;;24.90;93.70;;;25.59;75.06;97525.31;5063658;28;20835;-79
2022/07/25 08:31:47;;;;;;;8.53;4.60;;;24.90;93.40;;;25.65;74.70;97526.81;5062487;28;20488;-79
2022/07/25 08:34:21;;;;;;;5.90;4.60;;;25.00;93.50;;;25.66;74.50;97523.03;5064094;28;20457;-79
2022/07/25 08:36:50;;;;;;;12.10;5.53;;;25.00;93.30;;;25.73;73.07;97524.22;5065213;28;20506;-79
2022/07/25 08:39:21;;;;;;;7.30;5.57;;;25.10;93.00;;;25.76;72.93;97525.50;5063150;28;20499;-79
2022/07/25 08:41:51;;;;;;;6.47;5.07;;;25.10;93.10;;;25.80;72.56;97521.16;5062390;28;20563;-79
2022/07/25 08:44:22;;;;;;;6.40;4.80;;;25.20;93.00;;;25.88;71.52;97521.25;5062285;28;20452;-79
2022/07/25 08:46:53;;;;;;;6.80;4.50;;;25.30;92.50;;;25.94;71.77;97522.75;5062943;28;20460;-79
2022/07/25 08:49:22;;;;;;;6.90;5.20;;;25.40;92.80;;;26.03;70.10;97526.28;5064068;28;20470;-80
2022/07/25 08:51:53;;;;;;;8.97;4.83;;;25.40;92.50;;;26.14;71.08;97532.25;5064209;28;20833;-79
2022/07/25 08:54:24;;;;;;;6.13;5.27;;;25.50;92.70;;;26.18;70.01;97527.09;5062390;28;20480;-79
2022/07/25 08:56:53;;;;;;;15.07;4.70;;;25.70;92.50;;;26.30;68.68;97519.34;5061976;28;20830;-79
2022/07/25 08:59:22;;;;;;;7.80;5.10;;;25.70;92.10;;;26.47;66.87;97522.19;5061758;28;20487;-79
2022/07/25 09:01:52;;;;;;;6.23;4.57;;;25.90;91.80;;;26.55;66.34;97531.41;5061321;28;20472;-80
2022/07/25 09:04:22;;;;;;;6.30;5.10;;;26.00;91.70;;;26.64;64.77;97526.91;5063394;28;20468;-79
2022/07/25 09:06:52;;;;;;;5.40;4.53;;;26.00;91.10;;;26.73;63.28;97525.06;5062997;28;20453;-79
2022/07/25 09:09:33;;;;;;;6.40;5.27;;;26.20;90.90;;;26.81;63.05;97521.69;5061673;28;20488;-79
2022/07/25 09:12:02;;;;;;;7.77;4.90;;;26.20;90.60;;;26.90;61.85;97517.22;5064364;28;20484;-79
2022/07/25 09:14:42;;;;;;;8.00;5.10;;;26.30;90.50;;;26.99;60.68;97516.16;5063134;28;20538;-79
2022/07/25 09:17:14;;;;;;;8.87;5.77;;;26.40;90.40;;;27.06;60.65;97509.56;5064270;28;20440;-79
2022/07/25 09:19:56;;;;;;;13.70;5.70;;;26.40;90.30;;;27.19;61.19;97509.50;5060052;28;20840;-80
2022/07/25 09:22:29;;;;;;;7.63;4.70;;;26.50;90.60;;;27.32;59.29;97513.19;5063622;28;20483;-80
2022/07/25 09:25:01;;;;;;;6.40;4.80;;;26.60;89.90;;;27.36;60.18;97512.28;5059507;28;20464;-80
2022/07/25 09:27:34;;;;;;;7.43;5.27;;;26.70;90.30;;;27.40;59.26;97515.94;5063362;28;20485;-79
2022/07/25 09:30:15;;;;;;;5.30;4.30;;;26.80;89.70;;;27.44;59.51;97516.94;5063359;28;20506;-79
2022/07/25 09:32:45;;;;;;;8.07;5.03;;;26.90;90.00;;;27.55;58.30;97516.66;5061501;28;20470;-80
2022/07/25 09:35:15;;;;;;;6.90;4.93;;;26.90;89.00;;;27.69;56.85;97506.59;5061950;28;21002;-80
2022/07/25 09:37:45;;;;;;;5.53;4.70;;;27.10;88.40;;;27.78;56.73;97505.53;5064566;28;20467;-79
2022/07/25 09:40:16;;;;;;;5.20;4.63;;;27.20;87.80;;;27.88;55.87;97505.25;5060663;28;21095;-79
2022/07/25 09:42:51;;;;;;;6.20;4.63;;;27.30;87.80;;;27.95;56.32;97507.47;5063850;28;20464;-79
2022/07/25 09:45:20;;;;;;;6.60;4.63;;;27.30;88.10;;;28.06;54.85;97511.47;5060290;28;20440;-79
2022/07/25 09:47:56;;;;;;;6.73;5.37;;;27.40;86.70;;;28.15;53.85;97508.84;5062362;28;20491;-79
2022/07/25 09:50:29;;;;;;;6.07;4.90;;;27.50;85.90;;;28.24;53.04;97512.31;5063643;28;20866;-80
2022/07/25 09:53:02;;;;;;;7.83;4.60;;;27.60;85.80;;;28.31;53.16;97518.81;5061702;28;20527;-80
2022/07/25 09:55:33;;;;;;;6.17;4.53;;;27.70;85.70;;;28.41;52.72;97515.03;5063641;28;20963;-80
2022/07/25 09:58:02;;;;;;;5.03;4.30;;;27.70;85.60;;;28.47;52.24;97508.38;5062024;28;21385;-79
2022/07/25 10:00:32;;;;;;;5.40;4.33;;;27.80;84.90;;;28.50;52.60;97511.22;5062130;28;20500;-80
2022/07/25 10:03:25;;;;;;;11.03;4.43;;;27.90;85.50;;;28.59;52.11;97510.44;5062833;28;20510;-80
2022/07/25 10:06:14;;;;;;;5.80;4.50;;;28.00;85.20;;;28.69;52.21;97507.47;5061882;28;20456;-80
2022/07/25 10:08:45;;;;;;;6.67;4.70;;;28.10;84.90;;;28.78;51.51;97503.66;5062161;28;20472;-80
2022/07/25 10:11:25;;;;;;;6.00;4.07;;;28.10;84.40;;;28.88;51.31;97494.47;5062977;28;20897;-80
2022/07/25 10:13:56;;;;;;;6.40;4.63;;;28.30;84.10;;;28.93;51.02;97488.91;5062281;28;20448;-80
2022/07/25 10:16:28;;;;;;;6.13;4.30;;;28.30;84.20;;;29.01;50.33;97498.91;5061111;28;20436;-80
2022/07/25 10:18:59;;;;;;;6.93;4.87;;;28.20;83.60;;;29.06;50.72;97500.59;5061147;28;20954;-80
2022/07/25 10:21:29;;;;;;;4.40;3.87;;;28.30;84.30;;;29.08;50.27;97488.44;5060280;28;20493;-80
2022/07/25 10:24:04;;;;;;;4.63;3.90;;;28.30;83.70;;;29.09;50.17;97490.00;5060900;28;21165;-80
2022/07/25 10:26:39;;;;;;;5.37;4.47;;;28.30;84.20;;;29.14;50.81;97489.84;5062724;28;20456;-80
2022/07/25 10:29:11;;;;;;;7.20;4.60;;;28.50;84.10;;;29.21;50.40;97483.94;5062751;28;20526;-80
2022/07/25 10:31:44;;;;;;;5.90;4.60;;;28.50;83.40;;;29.25;50.41;97483.00;5060880;28;20470;-80
2022/07/25 10:34:30;;;;;;;5.97;5.10;;;28.60;84.20;;;29.35;50.10;97489.97;5060406;28;20479;-80